sensor_id;sensor_type;location;lat;lon;timestamp;temperature;humidity
39779;DHT22;25454;49.878;8.618;2023-03-11T00:01:43;3.90;99.90
39779;DHT22;25454;49.878;8.618;2023-03-11T00:06:44;3.80;99.90
39779;DHT22;25454;49.878;8.618;2023-03-11T00:11:47;3.80;99.90
39779;DHT22;25454;49.878;8.618;2023-03-11T00:16:49;3.80;99.90
39779;DHT22;25454;49.878;8.618;2023-03-11T00:21:49;3.70;99.90
39779;DHT22;25454;49.878;8.618;2023-03-11T00:26:50;3.60;99.90
39779;DHT22;25454;49.878;8.618;2023-03-11T00:31:50;3.60;99.90
39779;DHT22;25454;49.878;8.618;2023-03-11T00:36:51;3.60;99.90
39779;DHT22;25454;49.878;8.618;2023-03-11T00:41:51;3.60;99.90
39779;DHT22;25454;49.878;8.618;2023-03-11T00:46:53;3.60;99.90
39779;DHT22;25454;49.878;8.618;2023-03-11T00:51:53;3.70;99.90
39779;DHT22;25454;49.878;8.618;2023-03-11T00:56:54;3.60;99.90
39779;DHT22;25454;49.878;8.618;2023-03-11T01:01:54;3.60;99.90
39779;DHT22;25454;49.878;8.618;2023-03-11T01:06:55;3.60;99.90
39779;DHT22;25454;49.878;8.618;2023-03-11T01:11:59;3.50;99.90
39779;DHT22;25454;49.878;8.618;2023-03-11T01:16:59;3.50;99.90
39779;DHT22;25454;49.878;8.618;2023-03-11T01:22:02;3.60;99.90
39779;DHT22;25454;49.878;8.618;2023-03-11T01:27:03;3.70;99.90
39779;DHT22;25454;49.878;8.618;2023-03-11T01:32:04;3.80;99.90
39779;DHT22;25454;49.878;8.618;2023-03-11T01:37:06;3.90;99.90
39779;DHT22;25454;49.878;8.618;2023-03-11T01:42:06;3.90;99.90
39779;DHT22;25454;49.878;8.618;2023-03-11T01:52:10;4.00;99.90
39779;DHT22;25454;49.878;8.618;2023-03-11T01:57:12;3.90;99.90
39779;DHT22;25454;49.878;8.618;2023-03-11T02:02:17;3.90;99.90
39779;DHT22;25454;49.878;8.618;2023-03-11T02:07:18;3.80;99.90
39779;DHT22;25454;49.878;8.618;2023-03-11T02:12:19;3.80;99.90
39779;DHT22;25454;49.878;8.618;2023-03-11T02:17:20;3.90;99.90
39779;DHT22;25454;49.878;8.618;2023-03-11T02:22:22;3.90;99.90
39779;DHT22;25454;49.878;8.618;2023-03-11T02:27:24;4.00;99.90
39779;DHT22;25454;49.878;8.618;2023-03-11T02:32:26;4.00;99.90
39779;DHT22;25454;49.878;8.618;2023-03-11T02:37:27;4.00;99.90
39779;DHT22;25454;49.878;8.618;2023-03-11T02:42:31;3.90;99.90
39779;DHT22;25454;49.878;8.618;2023-03-11T02:47:32;3.80;99.90
39779;DHT22;25454;49.878;8.618;2023-03-11T02:52:35;3.80;99.90
39779;DHT22;25454;49.878;8.618;2023-03-11T02:57:35;3.70;99.90
39779;DHT22;25454;49.878;8.618;2023-03-11T03:02:36;3.70;99.90
39779;DHT22;25454;49.878;8.618;2023-03-11T03:07:37;3.70;99.90
39779;DHT22;25454;49.878;8.618;2023-03-11T03:12:37;3.70;99.90
39779;DHT22;25454;49.878;8.618;2023-03-11T03:17:38;3.70;99.90
39779;DHT22;25454;49.878;8.618;2023-03-11T03:22:40;3.70;99.90
39779;DHT22;25454;49.878;8.618;2023-03-11T03:27:41;3.70;99.90
39779;DHT22;25454;49.878;8.618;2023-03-11T03:32:42;3.70;99.90
39779;DHT22;25454;49.878;8.618;2023-03-11T03:37:42;3.70;99.90
39779;DHT22;25454;49.878;8.618;2023-03-11T03:42:43;3.70;99.90
39779;DHT22;25454;49.878;8.618;2023-03-11T03:47:45;3.70;99.90
39779;DHT22;25454;49.878;8.618;2023-03-11T03:52:47;3.50;99.90
39779;DHT22;25454;49.878;8.618;2023-03-11T03:57:47;3.30;99.90
39779;DHT22;25454;49.878;8.618;2023-03-11T04:02:48;3.10;99.90
39779;DHT22;25454;49.878;8.618;2023-03-11T04:07:48;3.10;99.90
39779;DHT22;25454;49.878;8.618;2023-03-11T04:12:49;3.00;99.90
39779;DHT22;25454;49.878;8.618;2023-03-11T04:17:50;3.00;99.90
39779;DHT22;25454;49.878;8.618;2023-03-11T04:22:50;3.00;99.90
39779;DHT22;25454;49.878;8.618;2023-03-11T04:27:51;3.00;99.90
39779;DHT22;25454;49.878;8.618;2023-03-11T04:32:51;3.00;99.90
39779;DHT22;25454;49.878;8.618;2023-03-11T04:37:55;3.10;99.90
39779;DHT22;25454;49.878;8.618;2023-03-11T04:42:55;3.10;99.90
39779;DHT22;25454;49.878;8.618;2023-03-11T04:47:57;3.10;99.90
39779;DHT22;25454;49.878;8.618;2023-03-11T04:52:58;3.20;99.90
39779;DHT22;25454;49.878;8.618;2023-03-11T04:57:58;3.20;99.90
39779;DHT22;25454;49.878;8.618;2023-03-11T05:02:59;3.20;99.90
39779;DHT22;25454;49.878;8.618;2023-03-11T05:07:59;3.20;99.90
39779;DHT22;25454;49.878;8.618;2023-03-11T05:13:01;3.20;99.90
39779;DHT22;25454;49.878;8.618;2023-03-11T05:18:02;3.30;99.90
39779;DHT22;25454;49.878;8.618;2023-03-11T05:23:06;3.30;99.90
39779;DHT22;25454;49.878;8.618;2023-03-11T05:28:06;3.30;99.90
39779;DHT22;25454;49.878;8.618;2023-03-11T05:33:07;3.30;99.90
39779;DHT22;25454;49.878;8.618;2023-03-11T05:38:10;3.20;99.90
39779;DHT22;25454;49.878;8.618;2023-03-11T05:43:11;3.30;99.90
39779;DHT22;25454;49.878;8.618;2023-03-11T05:48:11;3.20;99.90
39779;DHT22;25454;49.878;8.618;2023-03-11T05:53:12;3.20;99.90
39779;DHT22;25454;49.878;8.618;2023-03-11T05:58:12;3.00;99.90
39779;DHT22;25454;49.878;8.618;2023-03-11T06:03:13;2.70;99.90
39779;DHT22;25454;49.878;8.618;2023-03-11T06:08:14;2.60;99.90
39779;DHT22;25454;49.878;8.618;2023-03-11T06:13:23;2.50;99.90
39779;DHT22;25454;49.878;8.618;2023-03-11T06:18:24;2.60;99.90
39779;DHT22;25454;49.878;8.618;2023-03-11T06:23:26;2.60;99.90
39779;DHT22;25454;49.878;8.618;2023-03-11T06:28:27;2.70;99.90
39779;DHT22;25454;49.878;8.618;2023-03-11T06:33:28;2.80;99.90
39779;DHT22;25454;49.878;8.618;2023-03-11T06:38:29;2.80;99.90
39779;DHT22;25454;49.878;8.618;2023-03-11T06:43:31;2.90;99.90
39779;DHT22;25454;49.878;8.618;2023-03-11T06:48:32;3.00;99.90
39779;DHT22;25454;49.878;8.618;2023-03-11T06:53:33;3.30;99.90
39779;DHT22;25454;49.878;8.618;2023-03-11T06:58:35;3.50;99.90
39779;DHT22;25454;49.878;8.618;2023-03-11T07:03:36;3.80;99.90
39779;DHT22;25454;49.878;8.618;2023-03-11T07:08:37;4.20;99.90
39779;DHT22;25454;49.878;8.618;2023-03-11T07:13:38;4.80;99.90
39779;DHT22;25454;49.878;8.618;2023-03-11T07:18:38;4.90;99.90
39779;DHT22;25454;49.878;8.618;2023-03-11T07:23:39;5.20;99.90
39779;DHT22;25454;49.878;8.618;2023-03-11T07:28:41;5.30;99.90
39779;DHT22;25454;49.878;8.618;2023-03-11T07:33:41;5.60;99.90
39779;DHT22;25454;49.878;8.618;2023-03-11T07:38:44;6.10;99.90
39779;DHT22;25454;49.878;8.618;2023-03-11T07:43:44;8.10;99.90
39779;DHT22;25454;49.878;8.618;2023-03-11T07:48:45;10.90;99.90
39779;DHT22;25454;49.878;8.618;2023-03-11T07:53:46;14.00;93.00
39779;DHT22;25454;49.878;8.618;2023-03-11T07:58:47;16.30;70.80
39779;DHT22;25454;49.878;8.618;2023-03-11T08:03:51;17.50;60.50
39779;DHT22;25454;49.878;8.618;2023-03-11T08:08:57;17.70;55.90
39779;DHT22;25454;49.878;8.618;2023-03-11T08:13:58;17.30;56.50
39779;DHT22;25454;49.878;8.618;2023-03-11T08:18:59;18.70;52.40
39779;DHT22;25454;49.878;8.618;2023-03-11T08:24:01;19.10;49.10
39779;DHT22;25454;49.878;8.618;2023-03-11T08:29:01;18.30;48.40
39779;DHT22;25454;49.878;8.618;2023-03-11T08:34:08;16.50;49.50
39779;DHT22;25454;49.878;8.618;2023-03-11T08:39:09;13.80;54.00
39779;DHT22;25454;49.878;8.618;2023-03-11T08:44:10;13.30;56.50
39779;DHT22;25454;49.878;8.618;2023-03-11T08:49:10;16.20;50.50
39779;DHT22;25454;49.878;8.618;2023-03-11T08:54:11;16.40;48.00
39779;DHT22;25454;49.878;8.618;2023-03-11T08:59:12;16.30;48.70
39779;DHT22;25454;49.878;8.618;2023-03-11T09:04:12;17.70;45.80
39779;DHT22;25454;49.878;8.618;2023-03-11T09:09:14;16.00;47.30
39779;DHT22;25454;49.878;8.618;2023-03-11T09:14:19;16.10;47.00
39779;DHT22;25454;49.878;8.618;2023-03-11T09:19:20;14.80;50.30
39779;DHT22;25454;49.878;8.618;2023-03-11T09:24:20;16.00;47.50
39779;DHT22;25454;49.878;8.618;2023-03-11T09:29:21;14.50;49.00
39779;DHT22;25454;49.878;8.618;2023-03-11T09:34:23;15.60;48.00
39779;DHT22;25454;49.878;8.618;2023-03-11T09:39:23;21.00;41.20
39779;DHT22;25454;49.878;8.618;2023-03-11T09:44:40;23.60;33.50
39779;DHT22;25454;49.878;8.618;2023-03-11T09:54:51;15.20;43.70
39779;DHT22;25454;49.878;8.618;2023-03-11T09:59:55;12.60;48.50
39779;DHT22;25454;49.878;8.618;2023-03-11T10:05:19;11.00;53.10
39779;DHT22;25454;49.878;8.618;2023-03-11T10:10:22;10.40;55.90
39779;DHT22;25454;49.878;8.618;2023-03-11T10:26:33;9.90;57.10
39779;DHT22;25454;49.878;8.618;2023-03-11T10:31:42;9.30;58.70
39779;DHT22;25454;49.878;8.618;2023-03-11T10:42:04;8.70;60.20
39779;DHT22;25454;49.878;8.618;2023-03-11T10:47:05;8.50;60.90
39779;DHT22;25454;49.878;8.618;2023-03-11T10:52:06;8.40;63.30
39779;DHT22;25454;49.878;8.618;2023-03-11T10:57:35;8.70;61.40
39779;DHT22;25454;49.878;8.618;2023-03-11T11:02:48;9.10;59.40
39779;DHT22;25454;49.878;8.618;2023-03-11T11:07:51;9.80;59.70
39779;DHT22;25454;49.878;8.618;2023-03-11T11:18:15;13.10;50.40
39779;DHT22;25454;49.878;8.618;2023-03-11T11:23:33;17.10;44.00
39779;DHT22;25454;49.878;8.618;2023-03-11T11:28:37;20.00;36.80
39779;DHT22;25454;49.878;8.618;2023-03-11T11:33:41;18.60;36.80
39779;DHT22;25454;49.878;8.618;2023-03-11T11:38:52;14.20;44.80
39779;DHT22;25454;49.878;8.618;2023-03-11T11:43:58;11.30;51.30
39779;DHT22;25454;49.878;8.618;2023-03-11T11:49:22;10.60;54.00
39779;DHT22;25454;49.878;8.618;2023-03-11T11:54:37;10.10;54.30
39779;DHT22;25454;49.878;8.618;2023-03-11T11:59:38;9.40;55.60
39779;DHT22;25454;49.878;8.618;2023-03-11T12:26:48;10.30;55.60
39779;DHT22;25454;49.878;8.618;2023-03-11T12:31:51;10.90;53.80
39779;DHT22;25454;49.878;8.618;2023-03-11T12:36:56;11.30;53.40
39779;DHT22;25454;49.878;8.618;2023-03-11T13:08:06;10.70;54.30
39779;DHT22;25454;49.878;8.618;2023-03-11T13:13:29;10.30;55.90
39779;DHT22;25454;49.878;8.618;2023-03-11T13:18:34;10.10;56.30
39779;DHT22;25454;49.878;8.618;2023-03-11T13:23:37;9.80;57.10
39779;DHT22;25454;49.878;8.618;2023-03-11T13:34:21;9.20;57.90
39779;DHT22;25454;49.878;8.618;2023-03-11T13:40:03;9.00;58.00
39779;DHT22;25454;49.878;8.618;2023-03-11T13:45:00;9.00;59.40
39779;DHT22;25454;49.878;8.618;2023-03-11T13:50:08;9.10;58.00
39779;DHT22;25454;49.878;8.618;2023-03-11T13:55:31;9.10;58.20
39779;DHT22;25454;49.878;8.618;2023-03-11T14:00:34;9.20;57.90
39779;DHT22;25454;49.878;8.618;2023-03-11T14:05:36;9.30;58.00
39779;DHT22;25454;49.878;8.618;2023-03-11T14:10:51;9.40;57.80
39779;DHT22;25454;49.878;8.618;2023-03-11T14:16:08;9.40;57.20
39779;DHT22;25454;49.878;8.618;2023-03-11T14:21:19;9.30;56.90
39779;DHT22;25454;49.878;8.618;2023-03-11T14:26:31;9.20;56.60
39779;DHT22;25454;49.878;8.618;2023-03-11T14:31:36;8.90;57.00
39779;DHT22;25454;49.878;8.618;2023-03-11T14:36:51;8.60;58.00
39779;DHT22;25454;49.878;8.618;2023-03-11T14:42:17;8.40;58.80
39779;DHT22;25454;49.878;8.618;2023-03-11T14:47:46;8.60;59.50
39779;DHT22;25454;49.878;8.618;2023-03-11T14:58:17;8.60;59.50
39779;DHT22;25454;49.878;8.618;2023-03-11T15:03:27;8.60;60.40
39779;DHT22;25454;49.878;8.618;2023-03-11T15:08:41;8.80;58.60
39779;DHT22;25454;49.878;8.618;2023-03-11T15:13:45;8.80;59.10
39779;DHT22;25454;49.878;8.618;2023-03-11T15:18:47;8.80;58.80
39779;DHT22;25454;49.878;8.618;2023-03-11T15:23:59;8.70;58.90
39779;DHT22;25454;49.878;8.618;2023-03-11T15:29:13;8.50;59.20
39779;DHT22;25454;49.878;8.618;2023-03-11T15:39:24;8.10;60.60
39779;DHT22;25454;49.878;8.618;2023-03-11T15:44:30;8.10;60.40
39779;DHT22;25454;49.878;8.618;2023-03-11T15:49:32;8.20;60.90
39779;DHT22;25454;49.878;8.618;2023-03-11T15:54:33;8.20;59.70
39779;DHT22;25454;49.878;8.618;2023-03-11T15:59:35;8.00;60.30
39779;DHT22;25454;49.878;8.618;2023-03-11T16:04:36;7.60;61.30
39779;DHT22;25454;49.878;8.618;2023-03-11T16:09:37;7.30;63.00
39779;DHT22;25454;49.878;8.618;2023-03-11T16:14:37;6.90;63.30
39779;DHT22;25454;49.878;8.618;2023-03-11T16:19:39;6.70;64.80
39779;DHT22;25454;49.878;8.618;2023-03-11T16:24:39;6.50;66.40
39779;DHT22;25454;49.878;8.618;2023-03-11T16:29:41;6.40;67.20
39779;DHT22;25454;49.878;8.618;2023-03-11T16:34:41;6.40;68.40
39779;DHT22;25454;49.878;8.618;2023-03-11T16:39:44;6.20;67.80
39779;DHT22;25454;49.878;8.618;2023-03-11T16:44:44;6.10;68.30
39779;DHT22;25454;49.878;8.618;2023-03-11T16:49:47;6.10;68.60
39779;DHT22;25454;49.878;8.618;2023-03-11T16:54:52;5.90;69.00
39779;DHT22;25454;49.878;8.618;2023-03-11T16:59:53;5.70;69.40
39779;DHT22;25454;49.878;8.618;2023-03-11T17:04:53;5.60;70.20
39779;DHT22;25454;49.878;8.618;2023-03-11T17:09:54;5.50;71.10
39779;DHT22;25454;49.878;8.618;2023-03-11T17:14:54;5.40;70.90
39779;DHT22;25454;49.878;8.618;2023-03-11T17:19:55;5.30;71.90
39779;DHT22;25454;49.878;8.618;2023-03-11T17:24:56;5.10;72.70
39779;DHT22;25454;49.878;8.618;2023-03-11T17:29:57;5.00;73.60
39779;DHT22;25454;49.878;8.618;2023-03-11T17:34:58;4.80;74.50
39779;DHT22;25454;49.878;8.618;2023-03-11T17:39:58;4.70;76.10
39779;DHT22;25454;49.878;8.618;2023-03-11T17:44:59;4.60;77.40
39779;DHT22;25454;49.878;8.618;2023-03-11T17:50:00;4.40;80.00
39779;DHT22;25454;49.878;8.618;2023-03-11T17:55:00;4.30;80.40
39779;DHT22;25454;49.878;8.618;2023-03-11T18:00:01;4.20;80.80
39779;DHT22;25454;49.878;8.618;2023-03-11T18:05:05;4.00;81.60
39779;DHT22;25454;49.878;8.618;2023-03-11T18:10:07;4.00;83.40
39779;DHT22;25454;49.878;8.618;2023-03-11T18:15:08;3.90;84.90
39779;DHT22;25454;49.878;8.618;2023-03-11T18:20:14;3.90;86.60
39779;DHT22;25454;49.878;8.618;2023-03-11T18:25:15;3.80;88.40
39779;DHT22;25454;49.878;8.618;2023-03-11T18:30:15;3.70;89.70
39779;DHT22;25454;49.878;8.618;2023-03-11T18:35:16;3.60;90.30
39779;DHT22;25454;49.878;8.618;2023-03-11T18:40:17;3.50;91.10
39779;DHT22;25454;49.878;8.618;2023-03-11T18:45:18;3.40;91.50
39779;DHT22;25454;49.878;8.618;2023-03-11T18:50:19;3.40;92.40
39779;DHT22;25454;49.878;8.618;2023-03-11T18:55:20;3.30;93.40
39779;DHT22;25454;49.878;8.618;2023-03-11T19:00:20;3.20;94.30
39779;DHT22;25454;49.878;8.618;2023-03-11T19:05:22;3.10;95.20
39779;DHT22;25454;49.878;8.618;2023-03-11T19:10:23;3.00;96.30
39779;DHT22;25454;49.878;8.618;2023-03-11T19:15:24;3.00;97.60
39779;DHT22;25454;49.878;8.618;2023-03-11T19:20:24;2.90;98.90
39779;DHT22;25454;49.878;8.618;2023-03-11T19:25:26;2.80;99.90
39779;DHT22;25454;49.878;8.618;2023-03-11T19:30:27;2.80;99.90
39779;DHT22;25454;49.878;8.618;2023-03-11T19:35:27;2.70;99.90
39779;DHT22;25454;49.878;8.618;2023-03-11T19:40:28;2.70;99.90
39779;DHT22;25454;49.878;8.618;2023-03-11T19:45:30;2.60;99.90
39779;DHT22;25454;49.878;8.618;2023-03-11T19:50:31;2.50;99.90
39779;DHT22;25454;49.878;8.618;2023-03-11T19:55:32;2.50;99.90
39779;DHT22;25454;49.878;8.618;2023-03-11T20:00:32;2.40;99.90
39779;DHT22;25454;49.878;8.618;2023-03-11T20:05:40;2.30;99.90
39779;DHT22;25454;49.878;8.618;2023-03-11T20:10:44;2.20;99.90
39779;DHT22;25454;49.878;8.618;2023-03-11T20:15:45;2.20;99.90
39779;DHT22;25454;49.878;8.618;2023-03-11T20:20:45;2.10;99.90
39779;DHT22;25454;49.878;8.618;2023-03-11T20:25:46;2.10;99.90
39779;DHT22;25454;49.878;8.618;2023-03-11T20:30:47;2.00;99.90
39779;DHT22;25454;49.878;8.618;2023-03-11T20:35:47;2.00;99.90
39779;DHT22;25454;49.878;8.618;2023-03-11T20:40:54;2.00;99.90
39779;DHT22;25454;49.878;8.618;2023-03-11T20:45:56;1.90;99.90
39779;DHT22;25454;49.878;8.618;2023-03-11T20:51:02;1.90;99.90
39779;DHT22;25454;49.878;8.618;2023-03-11T20:56:08;1.90;99.90
39779;DHT22;25454;49.878;8.618;2023-03-11T21:01:11;1.90;99.90
39779;DHT22;25454;49.878;8.618;2023-03-11T21:06:17;1.90;99.90
39779;DHT22;25454;49.878;8.618;2023-03-11T21:11:21;2.00;99.90
39779;DHT22;25454;49.878;8.618;2023-03-11T21:16:25;1.90;99.90
39779;DHT22;25454;49.878;8.618;2023-03-11T21:21:27;1.80;99.90
39779;DHT22;25454;49.878;8.618;2023-03-11T21:26:27;1.80;99.90
39779;DHT22;25454;49.878;8.618;2023-03-11T21:31:31;1.70;99.90
39779;DHT22;25454;49.878;8.618;2023-03-11T21:36:35;1.70;99.90
39779;DHT22;25454;49.878;8.618;2023-03-11T21:41:37;1.70;99.90
39779;DHT22;25454;49.878;8.618;2023-03-11T21:46:39;1.70;99.90
39779;DHT22;25454;49.878;8.618;2023-03-11T21:51:39;1.60;99.90
39779;DHT22;25454;49.878;8.618;2023-03-11T21:56:40;1.60;99.90
39779;DHT22;25454;49.878;8.618;2023-03-11T22:01:41;1.60;99.90
39779;DHT22;25454;49.878;8.618;2023-03-11T22:06:42;1.50;99.90
39779;DHT22;25454;49.878;8.618;2023-03-11T22:11:42;1.50;99.90
39779;DHT22;25454;49.878;8.618;2023-03-11T22:16:43;1.50;99.90
39779;DHT22;25454;49.878;8.618;2023-03-11T22:21:43;1.50;99.90
39779;DHT22;25454;49.878;8.618;2023-03-11T22:26:44;1.50;99.90
39779;DHT22;25454;49.878;8.618;2023-03-11T22:31:45;1.50;99.90
39779;DHT22;25454;49.878;8.618;2023-03-11T22:36:46;1.50;99.90
39779;DHT22;25454;49.878;8.618;2023-03-11T22:41:50;1.40;99.90
39779;DHT22;25454;49.878;8.618;2023-03-11T22:46:50;1.30;99.90
39779;DHT22;25454;49.878;8.618;2023-03-11T22:51:51;1.30;99.90
39779;DHT22;25454;49.878;8.618;2023-03-11T22:56:52;1.10;99.90
39779;DHT22;25454;49.878;8.618;2023-03-11T23:01:52;1.00;99.90
39779;DHT22;25454;49.878;8.618;2023-03-11T23:06:53;0.90;99.90
39779;DHT22;25454;49.878;8.618;2023-03-11T23:11:53;0.90;99.90
39779;DHT22;25454;49.878;8.618;2023-03-11T23:16:54;0.90;99.90
39779;DHT22;25454;49.878;8.618;2023-03-11T23:21:55;0.80;99.90
39779;DHT22;25454;49.878;8.618;2023-03-11T23:26:55;0.90;99.90
39779;DHT22;25454;49.878;8.618;2023-03-11T23:31:56;0.90;99.90
39779;DHT22;25454;49.878;8.618;2023-03-11T23:36:56;0.90;99.90
39779;DHT22;25454;49.878;8.618;2023-03-11T23:41:57;0.80;99.90
39779;DHT22;25454;49.878;8.618;2023-03-11T23:46:57;0.70;99.90
39779;DHT22;25454;49.878;8.618;2023-03-11T23:51:58;0.70;99.90
39779;DHT22;25454;49.878;8.618;2023-03-11T23:56:58;0.70;99.90
